createdAt,value
2022-11-28T00:01:34.000Z,100780.13
2022-11-28T00:04:00.369Z,100779.03
2022-11-28T00:06:27.562Z,100776.63
2022-11-28T00:08:54.715Z,100767.59
2022-11-28T00:11:21.142Z,100771.91
2022-11-28T00:13:47.483Z,100769.25
2022-11-28T00:16:18.050Z,100771.91
2022-11-28T00:18:44.441Z,100768.38
2022-11-28T00:21:13.180Z,100766.72
2022-11-28T00:23:40.802Z,100765.81
2022-11-28T00:26:10.784Z,100770.28
2022-11-28T00:28:37.760Z,100773.84
2022-11-28T00:31:04.791Z,100769.13
2022-11-28T00:33:34.838Z,100767.44
2022-11-28T00:36:03.148Z,100759.53
2022-11-28T00:38:30.181Z,100762.72
2022-11-28T00:41:08.396Z,100759.28
2022-11-28T00:43:35.154Z,100752.31
2022-11-28T00:46:02.826Z,100756.53
2022-11-28T00:48:29.553Z,100752.66
2022-11-28T00:51:08.630Z,100745.66
2022-11-28T00:53:35.630Z,100753.88
2022-11-28T00:56:05.577Z,100747.69
2022-11-28T00:58:33.468Z,100737.56
2022-11-28T01:01:00.437Z,100733.91
2022-11-28T01:03:26.854Z,100732.09
2022-11-28T01:05:53.224Z,100722.28
2022-11-28T01:08:19.561Z,100712.84
2022-11-28T01:10:46.116Z,100707.94
2022-11-28T01:13:12.478Z,100706.13
2022-11-28T01:15:42.004Z,100705.53
2022-11-28T01:18:08.682Z,100701.06
2022-11-28T01:20:35.123Z,100697.03
2022-11-28T01:23:01.589Z,100694.19
2022-11-28T01:25:27.972Z,100690.63
2022-11-28T01:27:54.394Z,100682.44
2022-11-28T01:30:20.891Z,100700.22
2022-11-28T01:32:47.253Z,100698.34
2022-11-28T01:35:13.655Z,100695.69
2022-11-28T01:37:40.214Z,100691.28
2022-11-28T01:40:07.345Z,100689.56
2022-11-28T01:42:34.087Z,100680.28
2022-11-28T01:45:17.314Z,100680.09
2022-11-28T01:47:44.279Z,100673.94
2022-11-28T01:50:11.429Z,100675.81
2022-11-28T01:52:40.911Z,100666.03
2022-11-28T01:55:09.011Z,100673.94
2022-11-28T01:57:35.550Z,100671.53
2022-11-28T02:00:12.239Z,100675.44
2022-11-28T02:02:47.840Z,100668.22
2022-11-28T02:05:15.995Z,100668.16
2022-11-28T02:07:44.154Z,100668.75
2022-11-28T02:10:15.052Z,100661.53
2022-11-28T02:12:59.005Z,100656.38
2022-11-28T02:16:01.708Z,100660.94
2022-11-28T02:18:36.243Z,100671.22
2022-11-28T02:21:25.799Z,100662.56
2022-11-28T02:24:02.563Z,100664.72
2022-11-28T02:26:55.983Z,100647.25
2022-11-28T02:29:47.338Z,100648.28
2022-11-28T02:32:30.211Z,100651.06
2022-11-28T02:35:05.113Z,100651.13
2022-11-28T02:37:44.075Z,100657.06
2022-11-28T02:40:25.014Z,100661.34
2022-11-28T02:43:16.726Z,100652.69
2022-11-28T02:45:55.185Z,100646.22
2022-11-28T02:48:30.616Z,100643.72
2022-11-28T02:51:06.410Z,100651.72
2022-11-28T02:53:34.003Z,100647.91
2022-11-28T02:56:00.811Z,100669.59
2022-11-28T02:58:27.355Z,100678.16
2022-11-28T03:00:54.907Z,100671.22
2022-11-28T03:03:36.539Z,100675.16
2022-11-28T03:06:37.534Z,100674.50
2022-11-28T03:09:17.167Z,100671.53
2022-11-28T03:12:09.585Z,100665.72
2022-11-28T03:14:54.100Z,100668.13
2022-11-28T03:17:37.749Z,100668.41
2022-11-28T03:20:11.759Z,100670.88
2022-11-28T03:22:44.849Z,100664.44
2022-11-28T03:25:35.922Z,100671.44
2022-11-28T03:28:12.177Z,100673.78
2022-11-28T03:30:53.659Z,100662.88
2022-11-28T03:33:23.413Z,100667.34
2022-11-28T03:35:56.217Z,100665.88
2022-11-28T03:38:29.058Z,100657.91
2022-11-28T03:40:59.863Z,100649.16
2022-11-28T03:43:34.696Z,100651.84
2022-11-28T03:46:07.202Z,100646.22
2022-11-28T03:48:42.046Z,100659.91
2022-11-28T03:51:19.913Z,100668.94
2022-11-28T03:54:01.387Z,100672.63
2022-11-28T03:56:40.951Z,100666.16
2022-11-28T03:59:16.676Z,100659.06
2022-11-28T04:02:13.847Z,100657.31
2022-11-28T04:04:55.510Z,100659.06
2022-11-28T04:07:41.122Z,100655.69
2022-11-28T04:10:33.271Z,100658.47
2022-11-28T04:13:15.383Z,100650.47
2022-11-28T04:15:53.752Z,100665.84
2022-11-28T04:18:57.681Z,100659.84
2022-11-28T04:21:36.735Z,100656.72
2022-11-28T04:24:10.438Z,100655.38
2022-11-28T04:26:43.584Z,100654.72
2022-11-28T04:29:13.981Z,100658.22
2022-11-28T04:31:44.336Z,100655.47
2022-11-28T04:34:14.210Z,100656.78
2022-11-28T04:36:43.288Z,100657.53
2022-11-28T04:39:14.750Z,100650.50
2022-11-28T04:41:53.441Z,100650.56
2022-11-28T04:44:26.830Z,100660.63
2022-11-28T04:46:55.494Z,100655.03
2022-11-28T04:49:23.607Z,100648.28
2022-11-28T04:52:07.280Z,100648.59
2022-11-28T04:54:45.171Z,100650.75
2022-11-28T04:57:19.106Z,100654.47
2022-11-28T04:59:47.204Z,100650.50
2022-11-28T05:02:16.440Z,100649.66
2022-11-28T05:04:44.686Z,100638.31
2022-11-28T05:07:11.217Z,100648.28
2022-11-28T05:09:38.355Z,100654.19
2022-11-28T05:12:06.083Z,100652.66
2022-11-28T05:14:32.460Z,100668.72
2022-11-28T05:16:58.797Z,100659.00
2022-11-28T05:19:25.285Z,100658.81
2022-11-28T05:21:53.361Z,100666.91
2022-11-28T05:24:22.277Z,100675.41
2022-11-28T05:26:49.010Z,100660.66
2022-11-28T05:29:15.435Z,100668.28
2022-11-28T05:31:41.835Z,100671.13
2022-11-28T05:34:08.415Z,100660.31
2022-11-28T05:36:35.026Z,100678.00
2022-11-28T05:39:01.366Z,100665.38
2022-11-28T05:41:30.380Z,100668.28
2022-11-28T05:43:58.008Z,100663.41
2022-11-28T05:46:25.192Z,100659.00
2022-11-28T05:48:51.575Z,100658.16
2022-11-28T05:51:18.174Z,100662.53
2022-11-28T05:53:44.914Z,100665.19
2022-11-28T05:56:23.048Z,100660.38
2022-11-28T05:58:49.755Z,100662.19
2022-11-28T06:01:24.493Z,100653.25
2022-11-28T06:03:51.846Z,100645.94
2022-11-28T06:06:22.036Z,100640.63
2022-11-28T06:08:49.701Z,100650.41
2022-11-28T06:11:16.441Z,100648.69
2022-11-28T06:13:43.780Z,100648.03
2022-11-28T06:16:12.244Z,100651.47
2022-11-28T06:18:39.788Z,100641.81
2022-11-28T06:21:08.040Z,100644.22
2022-11-28T06:23:35.085Z,100642.59
2022-11-28T06:26:06.889Z,100641.81
2022-11-28T06:28:34.368Z,100641.28
2022-11-28T06:31:01.111Z,100644.13
2022-11-28T06:33:27.697Z,100639.06
2022-11-28T06:36:01.562Z,100644.13
2022-11-28T06:38:28.798Z,100630.75
2022-11-28T06:41:00.005Z,100640.63
2022-11-28T06:43:27.157Z,100636.06
2022-11-28T06:45:54.096Z,100646.53
2022-11-28T06:48:21.174Z,100641.56
2022-11-28T06:50:48.026Z,100633.31
2022-11-28T06:53:14.565Z,100638.28
2022-11-28T06:55:42.309Z,100631.22
2022-11-28T06:58:08.776Z,100639.13
2022-11-28T07:00:35.546Z,100643.94
2022-11-28T07:03:01.938Z,100645.50
2022-11-28T07:05:28.460Z,100641.88
2022-11-28T07:07:54.972Z,100643.69
2022-11-28T07:10:22.293Z,100639.66
2022-11-28T07:12:54.477Z,100647.66
2022-11-28T07:15:21.128Z,100644.06
2022-11-28T07:17:47.462Z,100649.13
2022-11-28T07:20:14.178Z,100645.69
2022-11-28T07:22:40.644Z,100646.53
2022-11-28T07:25:07.593Z,100648.75
2022-11-28T07:27:34.089Z,100661.41
2022-11-28T07:30:00.438Z,100666.78
2022-11-28T07:32:26.768Z,100668.59
2022-11-28T07:34:53.801Z,100664.91
2022-11-28T07:37:20.185Z,100666.44
2022-11-28T07:39:46.524Z,100671.66
2022-11-28T07:42:13.062Z,100672.63
2022-11-28T07:44:39.426Z,100670.13
2022-11-28T07:47:05.852Z,100667.13
2022-11-28T07:49:32.268Z,100673.66
2022-11-28T07:51:58.818Z,100667.19
2022-11-28T07:54:25.212Z,100667.19
2022-11-28T07:59:37.886Z,100668.28
2022-11-28T08:02:04.402Z,100670.38
2022-11-28T08:04:30.877Z,100677.16
2022-11-28T08:06:57.281Z,100671.84
2022-11-28T08:09:23.624Z,100677.31
2022-11-28T08:11:52.316Z,100681.19
2022-11-28T08:14:18.710Z,100675.09
2022-11-28T08:16:45.355Z,100675.44
2022-11-28T08:19:11.968Z,100665.63
2022-11-28T08:21:38.849Z,100675.84
2022-11-28T08:24:07.723Z,100673.34
2022-11-28T08:26:34.753Z,100676.84
2022-11-28T08:29:02.176Z,100671.44
2022-11-28T08:31:31.882Z,100673.19
2022-11-28T08:34:01.116Z,100681.91
2022-11-28T08:36:29.374Z,100684.31
2022-11-28T08:39:17.072Z,100678.31
2022-11-28T08:41:42.734Z,100676.84
2022-11-28T08:44:09.205Z,100679.09
2022-11-28T08:46:36.206Z,100681.00
2022-11-28T08:49:04.564Z,100681.75
2022-11-28T08:51:31.643Z,100684.31
2022-11-28T08:53:59.794Z,100686.03
2022-11-28T08:56:26.945Z,100685.00
2022-11-28T08:58:53.344Z,100683.28
2022-11-28T09:01:22.482Z,100686.97
2022-11-28T09:03:49.493Z,100687.84
2022-11-28T09:06:17.307Z,100693.00
2022-11-28T09:08:44.290Z,100695.28
2022-11-28T09:11:13.201Z,100686.72
2022-11-28T09:13:39.655Z,100692.72
2022-11-28T09:16:06.610Z,100687.66
2022-11-28T09:18:33.347Z,100694.69
2022-11-28T09:21:01.834Z,100697.88
2022-11-28T09:23:29.127Z,100695.91
2022-11-28T09:25:56.242Z,100700.00
2022-11-28T09:28:23.577Z,100692.00
2022-11-28T09:30:50.342Z,100699.91
2022-11-28T09:33:16.810Z,100701.63
2022-11-28T09:35:43.213Z,100703.81
2022-11-28T09:38:09.571Z,100699.34
2022-11-28T09:40:42.169Z,100700.22
2022-11-28T09:43:31.228Z,100712.94
2022-11-28T09:46:00.354Z,100704.38
2022-11-28T09:48:33.705Z,100709.91
2022-11-28T09:51:06.872Z,100707.53
2022-11-28T09:53:52.694Z,100704.84
2022-11-28T09:56:22.105Z,100711.16
2022-11-28T09:59:00.618Z,100709.06
2022-11-28T10:01:45.531Z,100712.66
2022-11-28T10:04:24.220Z,100708.22
2022-11-28T10:07:09.270Z,100711.91
2022-11-28T10:09:59.897Z,100709.41
2022-11-28T10:12:31.580Z,100707.28
2022-11-28T10:15:03.732Z,100709.69
2022-11-28T10:17:56.609Z,100704.00
2022-11-28T10:20:27.191Z,100705.03
2022-11-28T10:22:59.286Z,100709.34
2022-11-28T10:25:28.425Z,100709.25
2022-11-28T10:27:55.596Z,100703.94
2022-11-28T10:30:25.811Z,100707.03
2022-11-28T10:32:57.638Z,100705.97
2022-11-28T10:35:44.659Z,100705.25
2022-11-28T10:38:16.002Z,100705.72
2022-11-28T10:40:55.641Z,100698.00
2022-11-28T10:43:59.483Z,100708.09
2022-11-28T10:46:41.175Z,100698.47
2022-11-28T10:49:19.703Z,100699.78
2022-11-28T10:52:23.593Z,100695.94
2022-11-28T10:55:07.516Z,100701.16
2022-11-28T10:57:45.208Z,100702.56
2022-11-28T11:00:14.893Z,100697.81
2022-11-28T11:02:46.371Z,100691.94
2022-11-28T11:05:18.413Z,100698.22
2022-11-28T11:08:12.647Z,100697.16
2022-11-28T11:10:49.135Z,100693.72
2022-11-28T11:13:53.464Z,100702.28
2022-11-28T11:16:19.880Z,100693.56
2022-11-28T11:18:46.605Z,100695.19
2022-11-28T11:21:19.210Z,100699.34
2022-11-28T11:23:46.795Z,100699.47
2022-11-28T11:26:29.060Z,100704.88
2022-11-28T11:28:56.330Z,100693.44
2022-11-28T11:31:31.879Z,100697.56
2022-11-28T11:34:07.642Z,100687.75
2022-11-28T11:36:36.403Z,100693.09
2022-11-28T11:39:12.330Z,100689.38
2022-11-28T11:41:41.742Z,100696.34
2022-11-28T11:44:13.815Z,100690.31
2022-11-28T11:46:57.140Z,100693.59
2022-11-28T11:49:35.657Z,100697.94
2022-11-28T11:52:05.917Z,100695.56
2022-11-28T11:54:32.846Z,100695.28
2022-11-28T11:57:30.834Z,100703.19
2022-11-28T11:59:52.529Z,100700.25
2022-11-28T12:02:31.027Z,100701.09
2022-11-28T12:05:28.062Z,100694.25
2022-11-28T12:08:00.003Z,100699.22
2022-11-28T12:10:30.885Z,100701.75
2022-11-28T12:12:57.468Z,100703.84
2022-11-28T12:15:50.873Z,100706.81
2022-11-28T12:18:30.745Z,100701.38
2022-11-28T12:21:13.931Z,100705.75
2022-11-28T12:23:54.150Z,100715.84
2022-11-28T12:26:30.632Z,100707.28
2022-11-28T12:29:06.234Z,100714.91
2022-11-28T12:31:49.714Z,100714.72
2022-11-28T12:34:31.354Z,100710.78
2022-11-28T12:37:10.222Z,100706.31
2022-11-28T12:39:39.526Z,100715.00
2022-11-28T12:42:11.773Z,100710.03
2022-11-28T12:44:44.368Z,100706.41
2022-11-28T12:47:22.901Z,100706.31
2022-11-28T12:50:11.536Z,100706.31
2022-11-28T12:53:03.937Z,100708.31
2022-11-28T12:55:39.645Z,100709.38
2022-11-28T12:58:19.791Z,100706.97
2022-11-28T13:01:16.727Z,100699.81
2022-11-28T13:04:13.317Z,100710.59
2022-11-28T13:06:53.070Z,100707.56
2022-11-28T13:09:29.692Z,100714.63
2022-11-28T13:12:16.406Z,100713.72
2022-11-28T13:14:52.645Z,100712.19
2022-11-28T13:17:41.767Z,100708.56
2022-11-28T13:20:32.840Z,100703.16
2022-11-28T13:23:21.982Z,100700.38
2022-11-28T13:26:13.182Z,100706.66
2022-11-28T13:28:51.790Z,100698.94
2022-11-28T13:31:48.946Z,100713.03
2022-11-28T13:34:17.466Z,100707.59
2022-11-28T13:40:18.611Z,100708.91
2022-11-28T13:43:04.373Z,100716.38
2022-11-28T13:45:36.496Z,100716.28
2022-11-28T13:48:57.641Z,100713.03
2022-11-28T13:51:28.712Z,100718.19
2022-11-28T13:54:22.152Z,100729.97
2022-11-28T13:57:13.408Z,100725.53
2022-11-28T13:59:39.936Z,100719.91
2022-11-28T14:02:21.895Z,100722.28
2022-11-28T14:04:49.004Z,100717.06
2022-11-28T14:07:30.586Z,100711.44
2022-11-28T14:10:17.967Z,100721.34
2022-11-28T14:13:11.744Z,100722.19
2022-11-28T14:15:56.630Z,100721.16
2022-11-28T14:18:57.252Z,100723.63
2022-11-28T14:21:42.322Z,100723.53
2022-11-28T14:24:46.892Z,100723.53
2022-11-28T14:27:24.885Z,100731.34
2022-11-28T14:29:54.623Z,100742.63
2022-11-28T14:32:43.176Z,100738.41
2022-11-28T14:35:37.496Z,100731.28
2022-11-28T14:38:29.777Z,100740.97
2022-11-28T14:41:11.489Z,100735.47
2022-11-28T14:43:40.925Z,100738.22
2022-11-28T14:46:23.643Z,100748.13
2022-11-28T14:48:59.497Z,100748.97
2022-11-28T14:51:49.021Z,100752.41
2022-11-28T14:54:38.203Z,100750.19
2022-11-28T14:57:16.787Z,100750.13
2022-11-28T14:59:43.891Z,100751.94
2022-11-28T15:02:10.676Z,100745.06
2022-11-28T15:04:55.354Z,100753.72
2022-11-28T15:07:31.875Z,100750.00
2022-11-28T15:10:33.520Z,100752.59
2022-11-28T15:13:13.692Z,100756.13
2022-11-28T15:15:48.689Z,100753.72
2022-11-28T15:18:18.319Z,100750.28
2022-11-28T15:20:55.126Z,100753.91
2022-11-28T15:23:23.984Z,100754.88
2022-11-28T15:25:55.390Z,100762.09
2022-11-28T15:28:23.739Z,100773.41
2022-11-28T15:30:52.817Z,100774.38
2022-11-28T15:33:20.454Z,100768.28
2022-11-28T15:36:10.733Z,100770.19
2022-11-28T15:38:38.361Z,100769.97
2022-11-28T15:41:05.045Z,100766.28
2022-11-28T15:43:32.314Z,100773.25
2022-11-28T15:46:01.281Z,100771.34
2022-11-28T15:48:46.843Z,100771.25
2022-11-28T15:51:26.467Z,100770.28
2022-11-28T15:53:53.133Z,100765.72
2022-11-28T15:56:19.760Z,100767.53
2022-11-28T15:58:47.664Z,100773.66
2022-11-28T16:01:19.904Z,100776.41
2022-11-28T16:03:57.385Z,100774.63
2022-11-28T16:06:26.689Z,100780.69
2022-11-28T16:09:03.915Z,100778.22
2022-11-28T16:11:32.362Z,100788.97
2022-11-28T16:14:06.412Z,100791.53
2022-11-28T16:16:37.725Z,100798.69
2022-11-28T16:19:08.171Z,100794.91
2022-11-28T16:21:43.716Z,100795.84
2022-11-28T16:24:23.556Z,100795.16
2022-11-28T16:27:01.457Z,100799.63
2022-11-28T16:29:42.666Z,100799.63
2022-11-28T16:32:31.963Z,100797.84
2022-11-28T16:35:00.752Z,100804.09
2022-11-28T16:37:29.371Z,100804.03
2022-11-28T16:40:05.753Z,100808.50
2022-11-28T16:42:33.677Z,100803.94
2022-11-28T16:45:15.546Z,100812.88
2022-11-28T16:47:43.237Z,100811.94
2022-11-28T16:50:15.388Z,100804.03
2022-11-28T16:52:47.914Z,100811.16
2022-11-28T16:55:34.727Z,100808.50
2022-11-28T16:58:11.365Z,100811.94
2022-11-28T17:00:42.196Z,100802.97
2022-11-28T17:03:42.930Z,100803.06
2022-11-28T17:06:16.538Z,100818.13
2022-11-28T17:08:43.023Z,100817.09
2022-11-28T17:11:10.050Z,100814.59
2022-11-28T17:13:36.400Z,100819.81
2022-11-28T17:16:03.140Z,100821.66
2022-11-28T17:18:31.926Z,100816.38
2022-11-28T17:21:00.829Z,100818.97
2022-11-28T17:23:27.242Z,100816.03
2022-11-28T17:25:53.549Z,100824.03
2022-11-28T17:28:23.210Z,100820.53
2022-11-28T17:30:51.628Z,100831.94
2022-11-28T17:33:18.000Z,100825.66
2022-11-28T17:35:46.886Z,100828.34
2022-11-28T17:38:13.224Z,100829.38
2022-11-28T17:40:42.058Z,100834.53
2022-11-28T17:43:20.011Z,100836.34
2022-11-28T17:45:47.286Z,100837.44
2022-11-28T17:48:15.857Z,100841.28
2022-11-28T17:50:44.416Z,100840.91
2022-11-28T17:53:13.957Z,100843.47
2022-11-28T17:55:45.707Z,100836.09
2022-11-28T17:58:21.203Z,100836.34
2022-11-28T18:00:48.207Z,100845.97
2022-11-28T18:03:15.633Z,100848.44
2022-11-28T18:05:45.619Z,100840.63
2022-11-28T18:08:19.156Z,100843.22
2022-11-28T18:10:48.211Z,100842.44
2022-11-28T18:13:16.577Z,100841.41
2022-11-28T18:15:44.841Z,100842.25
2022-11-28T18:18:12.003Z,100842.16
2022-11-28T18:20:38.375Z,100845.78
2022-11-28T18:23:04.774Z,100848.28
2022-11-28T18:25:31.097Z,100845.69
2022-11-28T18:27:57.466Z,100848.94
2022-11-28T18:30:23.846Z,100847.03
2022-11-28T18:32:50.283Z,100851.59
2022-11-28T18:35:16.914Z,100852.47
2022-11-28T18:37:43.472Z,100855.31
2022-11-28T18:40:10.098Z,100852.38
2022-11-28T18:42:37.121Z,100853.59
2022-11-28T18:45:03.761Z,100855.03
2022-11-28T18:47:30.272Z,100856.66
2022-11-28T18:49:57.709Z,100860.38
2022-11-28T18:52:24.202Z,100858.28
2022-11-28T18:54:50.685Z,100855.63
2022-11-28T18:57:17.080Z,100866.88
2022-11-28T18:59:49.003Z,100865.16
2022-11-28T19:02:19.354Z,100868.69
2022-11-28T19:04:45.689Z,100872.78
2022-11-28T19:07:12.122Z,100874.41
2022-11-28T19:09:39.919Z,100879.59
2022-11-28T19:12:06.817Z,100870.13
2022-11-28T19:14:33.264Z,100882.69
2022-11-28T19:16:59.637Z,100881.75
2022-11-28T19:19:26.015Z,100884.63
2022-11-28T19:21:52.577Z,100881.84
2022-11-28T19:24:18.988Z,100881.00
2022-11-28T19:26:45.704Z,100876.34
2022-11-28T19:29:12.945Z,100878.25
2022-11-28T19:31:41.380Z,100878.13
2022-11-28T19:34:13.653Z,100877.00
2022-11-28T19:36:43.379Z,100881.94
2022-11-28T19:39:16.864Z,100881.69
2022-11-28T19:41:43.576Z,100885.66
2022-11-28T19:44:11.121Z,100888.41
2022-11-28T19:46:38.866Z,100886.50
2022-11-28T19:49:06.069Z,100888.13
2022-11-28T19:51:34.148Z,100892.50
2022-11-28T19:54:03.495Z,100891.06
2022-11-28T19:56:31.318Z,100893.94
2022-11-28T19:58:59.060Z,100890.09
2022-11-28T20:01:25.818Z,100891.84
2022-11-28T20:03:53.289Z,100889.25
2022-11-28T20:06:26.620Z,100900.91
2022-11-28T20:08:55.355Z,100903.56
2022-11-28T20:11:24.681Z,100902.88
2022-11-28T20:14:12.632Z,100900.78
2022-11-28T20:16:40.319Z,100896.22
2022-11-28T20:19:07.517Z,100908.13
2022-11-28T20:21:34.378Z,100907.06
2022-11-28T20:24:04.523Z,100904.22
2022-11-28T20:26:42.331Z,100908.63
2022-11-28T20:29:11.700Z,100899.59
2022-11-28T20:31:45.222Z,100910.34
2022-11-28T20:34:14.132Z,100914.13
2022-11-28T20:36:43.546Z,100920.22
2022-11-28T20:39:10.907Z,100917.47
2022-11-28T20:41:37.277Z,100922.72
2022-11-28T20:44:03.751Z,100920.16
2022-11-28T20:46:33.438Z,100922.13
2022-11-28T20:49:03.083Z,100929.00
2022-11-28T20:51:31.376Z,100922.72
2022-11-28T20:53:59.162Z,100923.59
2022-11-28T20:56:29.499Z,100930.72
2022-11-28T20:58:58.472Z,100928.81
2022-11-28T21:01:27.275Z,100935.91
2022-11-28T21:03:53.746Z,100922.38
2022-11-28T21:06:20.486Z,100928.75
2022-11-28T21:08:47.358Z,100932.53
2022-11-28T21:11:36.898Z,100940.19
2022-11-28T21:14:06.607Z,100938.94
2022-11-28T21:16:33.604Z,100937.41
2022-11-28T21:19:07.296Z,100934.75
2022-11-28T21:21:35.097Z,100939.81
2022-11-28T21:24:10.672Z,100933.63
2022-11-28T21:26:42.364Z,100939.22
2022-11-28T21:29:12.054Z,100940.69
2022-11-28T21:31:42.578Z,100940.00
2022-11-28T21:34:14.315Z,100939.72
2022-11-28T21:36:40.986Z,100942.22
2022-11-28T21:39:07.368Z,100937.41
2022-11-28T21:41:33.708Z,100948.44
2022-11-28T21:44:00.977Z,100945.25
2022-11-28T21:46:28.423Z,100943.94
2022-11-28T21:48:54.868Z,100950.91
2022-11-28T21:51:24.303Z,100944.47
2022-11-28T21:53:51.536Z,100950.22
2022-11-28T21:56:18.686Z,100948.94
2022-11-28T21:58:45.048Z,100950.22
2022-11-28T22:01:14.659Z,100948.25
2022-11-28T22:03:43.523Z,100950.06
2022-11-28T22:06:17.159Z,100949.16
2022-11-28T22:08:44.057Z,100950.13
2022-11-28T22:11:13.430Z,100950.22
2022-11-28T22:13:42.181Z,100951.84
2022-11-28T22:16:11.002Z,100961.78
2022-11-28T22:18:37.867Z,100955.06
2022-11-28T22:21:22.304Z,100949.75
2022-11-28T22:23:53.412Z,100948.50
2022-11-28T22:26:19.805Z,100951.94
2022-11-28T22:28:53.080Z,100952.56
2022-11-28T22:31:20.289Z,100951.72
2022-11-28T22:33:49.332Z,100961.50
2022-11-28T22:36:18.745Z,100962.44
2022-11-28T22:38:47.070Z,100958.69
2022-11-28T22:41:16.098Z,100966.84
2022-11-28T22:43:42.532Z,100967.34
2022-11-28T22:46:09.737Z,100969.09
2022-11-28T22:48:38.266Z,100967.63
2022-11-28T22:51:09.115Z,100965.44
2022-11-28T22:53:35.867Z,100966.00
2022-11-28T22:56:14.774Z,100972.09
2022-11-28T22:58:43.690Z,100972.25
2022-11-28T23:01:13.380Z,100972.44
2022-11-28T23:03:40.524Z,100969.66
2022-11-28T23:06:13.001Z,100977.78
2022-11-28T23:08:39.840Z,100977.50
2022-11-28T23:11:08.283Z,100982.84
2022-11-28T23:13:35.975Z,100985.59
2022-11-28T23:16:20.523Z,100981.72
2022-11-28T23:18:50.113Z,100981.66
2022-11-28T23:21:17.772Z,100989.84
2022-11-28T23:23:45.946Z,100988.88
2022-11-28T23:26:27.355Z,100989.84
2022-11-28T23:28:54.548Z,100991.78
2022-11-28T23:31:24.806Z,100996.03
2022-11-28T23:33:52.246Z,100993.38
2022-11-28T23:36:27.358Z,100998.53
2022-11-28T23:38:56.148Z,100989.75
2022-11-28T23:41:22.945Z,100994.81
2022-11-28T23:43:49.311Z,101001.28
2022-11-28T23:46:17.778Z,101001.97
2022-11-28T23:48:44.672Z,101001.00
2022-11-28T23:51:12.864Z,101001.88
2022-11-28T23:53:40.691Z,100999.09
2022-11-28T23:56:13.320Z,101003.59
2022-11-28T23:58:40.380Z,101004.44
